Mary Alice — WCX9570 — position and weather

sailwx.info

Track history (hours):
 
Tides and Currents Weather Stations Pressure Air Temp Water Temp Dewpoint Dewpoint Depression Visibility Wind Speed Wind Dir Waves Ship Positions

Mary Alice

Owner: Donjon Marine Co., Inc., HILLSIDE, NJ. More information available from US FCC via Universal Licensing System and Coast Guard Vessel Documentation Center.

Last reported at 2015-Mar-05 07:29 UTC. Time now 2015-Mar-05 16:10 UTC.
Position N 42°21' W 070°49'.

Length 21 m; draft 4.8 m.

Type: Towing. MMSI: 366744020.

Date/timePositionNaut miles runAvg speedWind from/ knotsBaromVisibWave heightAir tempDewpointWater temp
2015-Mar-05 07:29N 42°21' W 070°49'10 0.8
2015-Mar-04 19:04N 42°22' W 071°03'0 0.0
2015-Mar-03 04:14N 42°22' W 071°03'51 1.0
2015-Mar-01 01:27N 41°32' W 070°47'10 5.3
2015-Feb-28 23:31N 41°27' W 070°59'17 5.7
2015-Feb-28 20:33N 41°14' W 071°13'6 5.7
2015-Feb-28 19:34N 41°10' W 071°18'5 5.4
2015-Feb-28 18:34N 41°07' W 071°23'5 5.3
2015-Feb-28 17:33N 41°04' W 071°29'5 5.2
2015-Feb-28 16:34N 41°01' W 071°35'5 4.9
2015-Feb-28 15:33N 40°59' W 071°41'5 4.7
2015-Feb-28 14:33N 40°57' W 071°46'4 4.4
2015-Feb-28 13:34N 40°54' W 071°51'4 4.2
2015-Feb-28 12:33N 40°53' W 071°56'5 4.6
2015-Feb-28 11:34N 40°52' W 072°02'5 4.7
2015-Feb-28 10:33N 40°50' W 072°08'5 4.6
2015-Feb-28 09:33N 40°49' W 072°14'5 5.0
2015-Feb-28 08:33N 40°48' W 072°20'5 4.5
2015-Feb-28 07:34N 40°45' W 072°25'5 4.6
2015-Feb-28 06:34N 40°42' W 072°30'5 4.5
2015-Feb-28 05:33N 40°41' W 072°36'5 4.5
2015-Feb-28 04:33N 40°39' W 072°42'5 4.6
2015-Feb-28 03:30N 40°38' W 072°48'5 4.7
2015-Feb-28 02:21N 40°37' W 072°55'9 4.6
2015-Feb-28 00:18N 40°35' W 073°07'4 4.7
2015-Feb-27 23:32N 40°34' W 073°11'5 4.7
2015-Feb-27 22:34N 40°33' W 073°17'5 4.5
2015-Feb-27 21:23N 40°33' W 073°24'4 4.4
2015-Feb-27 20:33N 40°32' W 073°29'4 4.4
2015-Feb-27 19:33N 40°32' W 073°35'5 4.4
2015-Feb-27 18:29N 40°32' W 073°41'9 4.5
2015-Feb-27 16:29N 40°29' W 073°52'6 4.9
2015-Feb-27 15:21N 40°31' W 073°59'5 5.9
2015-Feb-27 14:33N 40°35' W 074°02'5 5.1
2015-Feb-27 13:33N 40°39' W 074°06'3 2.7
2015-Feb-27 12:30N 40°41' W 074°08'1 0.9
2015-Feb-27 11:26N 40°42' W 074°09'0 0.1
2015-Feb-27 10:33N 40°42' W 074°09'0 0.0
2015-Feb-27 09:22N 40°42' W 074°09'0 0.0
2015-Feb-27 07:08N 40°42' W 074°09'0 0.0
2015-Feb-27 04:21N 40°42' W 074°09'0 0.0
2015-Feb-27 02:17N 40°42' W 074°09'0 0.0
2015-Feb-27 00:32N 40°42' W 074°09'0 0.0
2015-Feb-26 23:31N 40°42' W 074°09'0 0.0
2015-Feb-26 21:07N 40°42' W 074°09'1 0.7
2015-Feb-26 19:28N 40°41' W 074°08'3 3.7
2015-Feb-26 18:32N 40°39' W 074°04'5 2.3
2015-Feb-26 16:29N 40°35' W 074°01'0 0.0
2015-Feb-26 15:25N 40°35' W 074°01'0 0.0
2015-Feb-26 14:28N 40°35' W 074°01'0 0.0
2015-Feb-26 13:26N 40°35' W 074°01'0 0.4
2015-Feb-26 12:26N 40°35' W 074°01'0 0.2
2015-Feb-26 10:20N 40°35' W 074°01'4 5.7
2015-Feb-26 09:33N 40°39' W 074°04'5 4.5
2015-Feb-26 08:28N 40°42' W 074°09'0 0.0
2015-Feb-26 05:04N 40°42' W 074°09'0 0.0
2015-Feb-26 03:33N 40°42' W 074°09'0 0.0
2015-Feb-26 01:15N 40°42' W 074°09'0 0.0
2015-Feb-26 00:15N 40°42' W 074°09'3 1.1
2015-Feb-25 21:23N 40°39' W 074°10'0 0.3
2015-Feb-25 20:32N 40°39' W 074°10'0 0.1
2015-Feb-25 17:31N 40°39' W 074°10'0 0.0
2015-Feb-25 15:13N 40°39' W 074°10'0 0.3
2015-Feb-25 14:32N 40°39' W 074°10'1 1.2
2015-Feb-25 13:27N 40°39' W 074°08'6 7.2
2015-Feb-25 12:33N 40°41' W 074°01'3 2.1
2015-Feb-25 11:15N 40°39' W 074°03'1 0.9
2015-Feb-25 10:33N 40°40' W 074°04'3 2.9
2015-Feb-25 09:33N 40°42' W 074°01'5 5.0
2015-Feb-25 08:33N 40°46' W 073°57'2 2.1
2015-Feb-25 07:33N 40°44' W 073°58'6 5.9
2015-Feb-25 06:33N 40°39' W 074°03'4 4.0
2015-Feb-25 05:30N 40°39' W 074°09'3 2.2
2015-Feb-25 04:20N 40°42' W 074°09'0 0.0
2015-Feb-25 03:33N 40°42' W 074°09'0 0.0
2015-Feb-25 02:33N 40°42' W 074°09'0 0.0
2015-Feb-25 01:18N 40°42' W 074°09'0 0.0
2015-Feb-25 00:18N 40°42' W 074°09'0 0.0
2015-Feb-24 23:26N 40°42' W 074°09'0 0.0
2015-Feb-24 22:27N 40°42' W 074°09'0 0.0
2015-Feb-24 21:32N 40°42' W 074°09'0 0.0
2015-Feb-24 20:33N 40°42' W 074°09'0 0.0
2015-Feb-24 19:33N 40°42' W 074°09'0 0.0
2015-Feb-24 18:33N 40°42' W 074°09'1 0.8
2015-Feb-24 17:33N 40°41' W 074°08'0 0.3
2015-Feb-24 16:33N 40°41' W 074°08'0 0.0
2015-Feb-24 15:33N 40°41' W 074°08'0 0.0
2015-Feb-24 14:33N 40°41' W 074°08'0 0.0
2015-Feb-24 13:33N 40°41' W 074°08'0 0.3
2015-Feb-24 12:33N 40°41' W 074°09'0 0.1
2015-Feb-24 11:33N 40°41' W 074°09'1 0.6
2015-Feb-24 10:32N 40°40' W 074°08'1 1.1
2015-Feb-24 09:13N 40°42' W 074°08'0 0.7
2015-Feb-24 08:33N 40°42' W 074°09'0 0.0
2015-Feb-24 07:31N 40°42' W 074°09'0 0.1
2015-Feb-24 05:33N 40°42' W 074°09'5 5.3
2015-Feb-24 04:33N 40°39' W 074°03'4 4.4
2015-Feb-24 03:33N 40°39' W 074°09'3 0.6
2015-Feb-23 22:04N 40°42' W 074°09'0 0.0
2015-Feb-23 21:25N 40°42' W 074°09'0 0.0
2015-Feb-23 20:31N 40°42' W 074°09'0 0.0
2015-Feb-23 19:30N 40°42' W 074°09'0 0.0
2015-Feb-23 18:33N 40°42' W 074°09'0 0.0
2015-Feb-23 17:32N 40°42' W 074°09'0 0.0
2015-Feb-23 16:31N 40°42' W 074°09'0 0.0
2015-Feb-23 10:26N 40°42' W 074°09'0 0.0
2015-Feb-23 09:32N 40°42' W 074°09'0 0.0
2015-Feb-23 08:33N 40°42' W 074°09'0 0.0
2015-Feb-23 07:32N 40°42' W 074°09'  
Track history (hours):
 
Tides and Currents Weather Stations Pressure Air Temp Water Temp Dewpoint Dewpoint Depression Visibility Wind Speed Wind Dir Waves Ship Positions

Mary Alice

Owner: Donjon Marine Co., Inc., HILLSIDE, NJ. More information available from US FCC via Universal Licensing System and Coast Guard Vessel Documentation Center.

Last reported at 2015-Mar-05 07:29 UTC. Time now 2015-Mar-05 16:10 UTC.
Position N 42°21' W 070°49'.

Length 21 m; draft 4.8 m.

Type: Towing. MMSI: 366744020.

Date/timePositionNaut miles runAvg speedWind from/ knotsBaromVisibWave heightAir tempDewpointWater temp
2015-Mar-05 07:29N 42°21' W 070°49'10 0.8
2015-Mar-04 19:04N 42°22' W 071°03'0 0.0
2015-Mar-03 04:14N 42°22' W 071°03'51 1.0
2015-Mar-01 01:27N 41°32' W 070°47'10 5.3
2015-Feb-28 23:31N 41°27' W 070°59'17 5.7
2015-Feb-28 20:33N 41°14' W 071°13'6 5.7
2015-Feb-28 19:34N 41°10' W 071°18'5 5.4
2015-Feb-28 18:34N 41°07' W 071°23'5 5.3
2015-Feb-28 17:33N 41°04' W 071°29'5 5.2
2015-Feb-28 16:34N 41°01' W 071°35'5 4.9
2015-Feb-28 15:33N 40°59' W 071°41'5 4.7
2015-Feb-28 14:33N 40°57' W 071°46'4 4.4
2015-Feb-28 13:34N 40°54' W 071°51'4 4.2
2015-Feb-28 12:33N 40°53' W 071°56'5 4.6
2015-Feb-28 11:34N 40°52' W 072°02'5 4.7
2015-Feb-28 10:33N 40°50' W 072°08'5 4.6
2015-Feb-28 09:33N 40°49' W 072°14'5 5.0
2015-Feb-28 08:33N 40°48' W 072°20'5 4.5
2015-Feb-28 07:34N 40°45' W 072°25'5 4.6
2015-Feb-28 06:34N 40°42' W 072°30'5 4.5
2015-Feb-28 05:33N 40°41' W 072°36'5 4.5
2015-Feb-28 04:33N 40°39' W 072°42'5 4.6
2015-Feb-28 03:30N 40°38' W 072°48'5 4.7
2015-Feb-28 02:21N 40°37' W 072°55'9 4.6
2015-Feb-28 00:18N 40°35' W 073°07'4 4.7
2015-Feb-27 23:32N 40°34' W 073°11'5 4.7
2015-Feb-27 22:34N 40°33' W 073°17'5 4.5
2015-Feb-27 21:23N 40°33' W 073°24'4 4.4
2015-Feb-27 20:33N 40°32' W 073°29'4 4.4
2015-Feb-27 19:33N 40°32' W 073°35'5 4.4
2015-Feb-27 18:29N 40°32' W 073°41'9 4.5
2015-Feb-27 16:29N 40°29' W 073°52'6 4.9
2015-Feb-27 15:21N 40°31' W 073°59'5 5.9
2015-Feb-27 14:33N 40°35' W 074°02'5 5.1
2015-Feb-27 13:33N 40°39' W 074°06'3 2.7
2015-Feb-27 12:30N 40°41' W 074°08'1 0.9
2015-Feb-27 11:26N 40°42' W 074°09'0 0.1
2015-Feb-27 10:33N 40°42' W 074°09'0 0.0
2015-Feb-27 09:22N 40°42' W 074°09'0 0.0
2015-Feb-27 07:08N 40°42' W 074°09'0 0.0
2015-Feb-27 04:21N 40°42' W 074°09'0 0.0
2015-Feb-27 02:17N 40°42' W 074°09'0 0.0
2015-Feb-27 00:32N 40°42' W 074°09'0 0.0
2015-Feb-26 23:31N 40°42' W 074°09'0 0.0
2015-Feb-26 21:07N 40°42' W 074°09'1 0.7
2015-Feb-26 19:28N 40°41' W 074°08'3 3.7
2015-Feb-26 18:32N 40°39' W 074°04'5 2.3
2015-Feb-26 16:29N 40°35' W 074°01'0 0.0
2015-Feb-26 15:25N 40°35' W 074°01'0 0.0
2015-Feb-26 14:28N 40°35' W 074°01'0 0.0
2015-Feb-26 13:26N 40°35' W 074°01'0 0.4
2015-Feb-26 12:26N 40°35' W 074°01'0 0.2
2015-Feb-26 10:20N 40°35' W 074°01'4 5.7
2015-Feb-26 09:33N 40°39' W 074°04'5 4.5
2015-Feb-26 08:28N 40°42' W 074°09'0 0.0
2015-Feb-26 05:04N 40°42' W 074°09'0 0.0
2015-Feb-26 03:33N 40°42' W 074°09'0 0.0
2015-Feb-26 01:15N 40°42' W 074°09'0 0.0
2015-Feb-26 00:15N 40°42' W 074°09'3 1.1
2015-Feb-25 21:23N 40°39' W 074°10'0 0.3
2015-Feb-25 20:32N 40°39' W 074°10'0 0.1
2015-Feb-25 17:31N 40°39' W 074°10'0 0.0
2015-Feb-25 15:13N 40°39' W 074°10'0 0.3
2015-Feb-25 14:32N 40°39' W 074°10'1 1.2
2015-Feb-25 13:27N 40°39' W 074°08'6 7.2
2015-Feb-25 12:33N 40°41' W 074°01'3 2.1
2015-Feb-25 11:15N 40°39' W 074°03'1 0.9
2015-Feb-25 10:33N 40°40' W 074°04'3 2.9
2015-Feb-25 09:33N 40°42' W 074°01'5 5.0
2015-Feb-25 08:33N 40°46' W 073°57'2 2.1
2015-Feb-25 07:33N 40°44' W 073°58'6 5.9
2015-Feb-25 06:33N 40°39' W 074°03'4 4.0
2015-Feb-25 05:30N 40°39' W 074°09'3 2.2
2015-Feb-25 04:20N 40°42' W 074°09'0 0.0
2015-Feb-25 03:33N 40°42' W 074°09'0 0.0
2015-Feb-25 02:33N 40°42' W 074°09'0 0.0
2015-Feb-25 01:18N 40°42' W 074°09'0 0.0
2015-Feb-25 00:18N 40°42' W 074°09'0 0.0
2015-Feb-24 23:26N 40°42' W 074°09'0 0.0
2015-Feb-24 22:27N 40°42' W 074°09'0 0.0
2015-Feb-24 21:32N 40°42' W 074°09'0 0.0
2015-Feb-24 20:33N 40°42' W 074°09'0 0.0
2015-Feb-24 19:33N 40°42' W 074°09'0 0.0
2015-Feb-24 18:33N 40°42' W 074°09'1 0.8
2015-Feb-24 17:33N 40°41' W 074°08'0 0.3
2015-Feb-24 16:33N 40°41' W 074°08'0 0.0
2015-Feb-24 15:33N 40°41' W 074°08'0 0.0
2015-Feb-24 14:33N 40°41' W 074°08'0 0.0
2015-Feb-24 13:33N 40°41' W 074°08'0 0.3
2015-Feb-24 12:33N 40°41' W 074°09'0 0.1
2015-Feb-24 11:33N 40°41' W 074°09'1 0.6
2015-Feb-24 10:32N 40°40' W 074°08'1 1.1
2015-Feb-24 09:13N 40°42' W 074°08'0 0.7
2015-Feb-24 08:33N 40°42' W 074°09'0 0.0
2015-Feb-24 07:31N 40°42' W 074°09'0 0.1
2015-Feb-24 05:33N 40°42' W 074°09'5 5.3
2015-Feb-24 04:33N 40°39' W 074°03'4 4.4
2015-Feb-24 03:33N 40°39' W 074°09'3 0.6
2015-Feb-23 22:04N 40°42' W 074°09'0 0.0
2015-Feb-23 21:25N 40°42' W 074°09'0 0.0
2015-Feb-23 20:31N 40°42' W 074°09'0 0.0
2015-Feb-23 19:30N 40°42' W 074°09'0 0.0
2015-Feb-23 18:33N 40°42' W 074°09'0 0.0
2015-Feb-23 17:32N 40°42' W 074°09'0 0.0
2015-Feb-23 16:31N 40°42' W 074°09'0 0.0
2015-Feb-23 10:26N 40°42' W 074°09'0 0.0
2015-Feb-23 09:32N 40°42' W 074°09'0 0.0
2015-Feb-23 08:33N 40°42' W 074°09'0 0.0
2015-Feb-23 07:32N 40°42' W 074°09'  

Dump ship's entire track history